createdAt,value
2022-08-31T00:00:14.329Z,12.06
2022-08-31T00:03:19.643Z,12.04
2022-08-31T00:05:47.055Z,12.01
2022-08-31T00:08:14.541Z,11.95
2022-08-31T00:10:43.251Z,11.94
2022-08-31T00:13:13.331Z,11.93
2022-08-31T00:15:41.102Z,11.92
2022-08-31T00:18:08.823Z,11.90
2022-08-31T00:20:36.531Z,11.90
2022-08-31T00:23:04.879Z,11.87
2022-08-31T00:25:32.735Z,11.78
2022-08-31T00:27:59.977Z,11.78
2022-08-31T00:30:27.072Z,11.75
2022-08-31T00:32:54.162Z,11.73
2022-08-31T00:35:26.572Z,11.78
2022-08-31T00:37:53.627Z,11.75
2022-08-31T00:40:20.745Z,11.75
2022-08-31T00:42:48.540Z,11.70
2022-08-31T00:45:15.564Z,11.66
2022-08-31T00:47:43.092Z,11.62
2022-08-31T00:50:11.750Z,11.71
2022-08-31T00:52:41.565Z,11.72
2022-08-31T00:55:28.354Z,11.81
2022-08-31T00:57:57.389Z,11.80
2022-08-31T01:00:26.434Z,11.73
2022-08-31T01:02:54.375Z,11.71
2022-08-31T01:05:21.716Z,11.69
2022-08-31T01:07:50.115Z,11.68
2022-08-31T01:10:19.248Z,11.71
2022-08-31T01:12:48.140Z,11.69
2022-08-31T01:15:18.019Z,11.68
2022-08-31T01:17:47.202Z,11.65
2022-08-31T01:20:19.218Z,11.70
2022-08-31T01:22:52.907Z,11.71
2022-08-31T01:25:20.699Z,11.72
2022-08-31T01:27:47.751Z,11.69
2022-08-31T01:30:21.113Z,11.68
2022-08-31T01:32:48.983Z,11.74
2022-08-31T01:35:16.675Z,11.82
2022-08-31T01:37:44.004Z,11.80
2022-08-31T01:40:12.051Z,11.97
2022-08-31T01:42:39.059Z,11.95
2022-08-31T01:45:06.668Z,12.03
2022-08-31T01:47:34.088Z,12.03
2022-08-31T01:50:01.059Z,12.06
2022-08-31T01:52:28.669Z,12.07
2022-08-31T01:54:56.597Z,12.03
2022-08-31T01:57:26.951Z,11.99
2022-08-31T02:00:02.990Z,12.06
2022-08-31T02:02:30.274Z,12.05
2022-08-31T02:04:57.594Z,12.04
2022-08-31T02:07:25.638Z,11.99
2022-08-31T02:09:54.226Z,11.97
2022-08-31T02:12:21.174Z,11.94
2022-08-31T02:14:48.777Z,12.00
2022-08-31T02:17:15.998Z,11.93
2022-08-31T02:19:43.439Z,11.84
2022-08-31T02:22:10.800Z,11.85
2022-08-31T02:24:37.771Z,11.82
2022-08-31T02:27:05.190Z,11.81
2022-08-31T02:29:32.590Z,11.78
2022-08-31T02:31:59.696Z,11.71
2022-08-31T02:34:26.648Z,11.68
2022-08-31T02:36:54.062Z,11.60
2022-08-31T02:39:21.047Z,11.59
2022-08-31T02:41:48.236Z,11.61
2022-08-31T02:44:15.765Z,11.64
2022-08-31T02:46:43.138Z,11.64
2022-08-31T02:49:10.202Z,11.67
2022-08-31T02:51:40.368Z,11.65
2022-08-31T02:54:07.778Z,11.59
2022-08-31T02:56:34.792Z,11.49
2022-08-31T02:59:01.962Z,11.51
2022-08-31T03:01:29.396Z,11.58
2022-08-31T03:03:56.753Z,11.60
2022-08-31T03:06:24.476Z,11.48
2022-08-31T03:08:51.984Z,11.47
2022-08-31T03:11:20.266Z,11.42
2022-08-31T03:13:48.137Z,11.47
2022-08-31T03:16:15.867Z,11.44
2022-08-31T03:18:43.368Z,11.47
2022-08-31T03:21:10.642Z,11.35
2022-08-31T03:23:38.256Z,11.38
2022-08-31T03:26:06.127Z,11.39
2022-08-31T03:28:34.152Z,11.37
2022-08-31T03:31:01.877Z,11.39
2022-08-31T03:33:29.103Z,11.36
2022-08-31T03:35:56.571Z,11.33
2022-08-31T03:38:23.734Z,11.33
2022-08-31T03:40:51.323Z,11.30
2022-08-31T03:43:18.809Z,11.32
2022-08-31T03:45:46.351Z,11.32
2022-08-31T03:48:13.451Z,11.28
2022-08-31T03:50:41.586Z,11.23
2022-08-31T03:53:09.383Z,11.19
2022-08-31T03:55:37.861Z,11.20
2022-08-31T03:58:05.448Z,11.15
2022-08-31T04:00:33.898Z,11.08
2022-08-31T04:03:01.912Z,11.05
2022-08-31T04:05:29.907Z,11.09
2022-08-31T04:07:57.367Z,11.10
2022-08-31T04:10:24.497Z,11.05
2022-08-31T04:12:52.057Z,11.11
2022-08-31T04:15:19.136Z,11.09
2022-08-31T04:17:46.750Z,11.10
2022-08-31T04:20:14.350Z,11.10
2022-08-31T04:22:42.072Z,11.07
2022-08-31T04:25:10.588Z,11.04
2022-08-31T04:27:40.514Z,10.97
2022-08-31T04:30:09.289Z,10.97
2022-08-31T04:32:36.764Z,11.03
2022-08-31T04:35:04.348Z,11.08
2022-08-31T04:37:31.778Z,11.17
2022-08-31T04:40:01.836Z,11.21
2022-08-31T04:42:30.515Z,11.27
2022-08-31T04:44:57.675Z,11.32
2022-08-31T04:47:25.112Z,11.33
2022-08-31T04:49:52.576Z,11.35
2022-08-31T04:52:19.674Z,11.31
2022-08-31T04:54:55.078Z,11.39
2022-08-31T04:57:22.001Z,11.46
2022-08-31T04:59:48.962Z,11.56
2022-08-31T05:02:16.167Z,11.58
2022-08-31T05:04:43.141Z,11.58
2022-08-31T05:07:10.240Z,11.60
2022-08-31T05:09:37.516Z,11.59
2022-08-31T05:12:04.488Z,11.61
2022-08-31T05:14:31.341Z,11.65
2022-08-31T05:17:01.560Z,11.78
2022-08-31T05:19:28.550Z,11.87
2022-08-31T05:21:56.182Z,12.00
2022-08-31T05:24:23.816Z,12.11
2022-08-31T05:26:53.596Z,12.52
2022-08-31T05:29:22.141Z,12.95
2022-08-31T05:31:52.406Z,13.46
2022-08-31T05:34:21.031Z,13.89
2022-08-31T05:36:51.498Z,14.27
2022-08-31T05:39:18.868Z,14.63
2022-08-31T05:41:47.129Z,14.93
2022-08-31T05:44:14.459Z,15.27
2022-08-31T05:46:42.097Z,15.60
2022-08-31T05:49:10.214Z,15.92
2022-08-31T05:51:38.570Z,16.25
2022-08-31T05:54:06.338Z,16.54
2022-08-31T05:56:33.567Z,16.76
2022-08-31T05:59:00.598Z,16.96
2022-08-31T06:01:30.975Z,17.16
2022-08-31T06:03:58.560Z,17.34
2022-08-31T06:06:26.271Z,17.25
2022-08-31T06:08:54.274Z,17.40
2022-08-31T06:11:23.045Z,17.67
2022-08-31T06:13:51.446Z,17.77
2022-08-31T06:16:19.421Z,18.09
2022-08-31T06:18:53.370Z,18.24
2022-08-31T06:21:22.852Z,18.47
2022-08-31T06:23:50.786Z,18.69
2022-08-31T06:26:19.226Z,18.97
2022-08-31T06:28:47.900Z,19.04
2022-08-31T06:31:36.459Z,19.28
2022-08-31T06:34:04.886Z,19.50
2022-08-31T06:36:33.133Z,19.67
2022-08-31T06:39:01.599Z,19.68
2022-08-31T06:41:35.672Z,19.86
2022-08-31T06:44:06.347Z,20.11
2022-08-31T06:46:34.645Z,20.69
2022-08-31T06:49:02.426Z,20.66
2022-08-31T06:51:29.738Z,20.94
2022-08-31T06:54:04.393Z,21.44
2022-08-31T06:56:43.763Z,22.00
2022-08-31T06:59:11.532Z,21.86
2022-08-31T07:01:39.910Z,22.50
2022-08-31T07:04:08.419Z,22.75
2022-08-31T07:06:38.262Z,23.02
2022-08-31T07:09:06.962Z,22.53
2022-08-31T07:11:35.161Z,23.60
2022-08-31T07:14:02.532Z,24.16
2022-08-31T07:16:29.804Z,23.99
2022-08-31T07:18:59.165Z,23.47
2022-08-31T07:21:28.183Z,24.14
2022-08-31T07:23:56.984Z,25.14
2022-08-31T07:26:27.901Z,25.69
2022-08-31T07:28:56.766Z,25.69
2022-08-31T07:31:26.473Z,25.05
2022-08-31T07:33:56.284Z,23.19
2022-08-31T07:36:24.979Z,24.78
2022-08-31T07:39:11.022Z,25.29
2022-08-31T07:41:57.143Z,26.65
2022-08-31T07:44:24.157Z,27.84
2022-08-31T07:46:55.667Z,28.51
2022-08-31T07:49:22.599Z,28.40
2022-08-31T07:51:53.169Z,28.67
2022-08-31T07:54:22.456Z,28.77
2022-08-31T07:56:52.969Z,28.07
2022-08-31T07:59:21.078Z,28.70
2022-08-31T08:01:49.368Z,29.34
2022-08-31T08:04:26.923Z,28.58
2022-08-31T08:06:56.280Z,28.65
2022-08-31T08:09:25.193Z,29.39
2022-08-31T08:12:01.276Z,29.12
2022-08-31T08:14:30.375Z,29.59
2022-08-31T08:16:57.855Z,29.91
2022-08-31T08:19:25.006Z,28.65
2022-08-31T08:21:52.205Z,29.39
2022-08-31T08:24:20.548Z,30.13
2022-08-31T08:26:54.163Z,30.19
2022-08-31T08:29:24.493Z,29.58
2022-08-31T08:31:56.164Z,27.15
2022-08-31T08:34:31.561Z,24.79
2022-08-31T08:37:00.090Z,23.50
2022-08-31T08:39:27.816Z,22.51
2022-08-31T08:41:56.495Z,21.90
2022-08-31T08:44:25.090Z,24.01
2022-08-31T08:46:53.869Z,27.52
2022-08-31T08:49:27.540Z,29.53
2022-08-31T08:52:03.518Z,29.39
2022-08-31T08:54:36.080Z,31.86
2022-08-31T08:57:08.052Z,32.90
2022-08-31T08:59:35.471Z,31.32
2022-08-31T09:02:05.189Z,30.52
2022-08-31T09:04:52.643Z,28.99
2022-08-31T09:07:23.915Z,26.45
2022-08-31T09:10:15.775Z,25.90
2022-08-31T09:12:47.452Z,26.73
2022-08-31T09:15:18.642Z,28.64
2022-08-31T09:17:48.538Z,29.42
2022-08-31T09:20:16.737Z,28.04
2022-08-31T09:22:48.952Z,27.46
2022-08-31T09:25:20.562Z,27.94
2022-08-31T09:27:57.524Z,28.22
2022-08-31T09:30:43.239Z,29.42
2022-08-31T09:33:17.883Z,30.08
2022-08-31T09:35:45.259Z,29.13
2022-08-31T09:38:16.395Z,30.05
2022-08-31T09:40:45.291Z,30.22
2022-08-31T09:43:26.157Z,30.25
2022-08-31T09:45:53.190Z,30.43
2022-08-31T09:48:40.072Z,30.51
2022-08-31T09:51:07.484Z,28.97
2022-08-31T09:54:07.117Z,27.47
2022-08-31T09:56:50.711Z,26.15
2022-08-31T09:59:29.507Z,26.30
2022-08-31T10:02:00.356Z,26.66
2022-08-31T10:04:37.002Z,26.71
2022-08-31T10:07:09.965Z,27.48
2022-08-31T10:09:40.121Z,27.32
2022-08-31T10:12:11.702Z,27.56
2022-08-31T10:15:05.049Z,25.67
2022-08-31T10:17:38.739Z,27.20
2022-08-31T10:20:10.018Z,28.28
2022-08-31T10:23:00.439Z,27.79
2022-08-31T10:25:38.686Z,27.32
2022-08-31T10:28:21.326Z,27.09
2022-08-31T10:31:00.673Z,27.09
2022-08-31T10:34:09.313Z,26.61
2022-08-31T10:36:38.610Z,25.57
2022-08-31T10:39:14.329Z,26.36
2022-08-31T10:41:47.688Z,27.00
2022-08-31T10:44:39.502Z,28.13
2022-08-31T10:47:07.770Z,29.19
2022-08-31T10:49:41.404Z,28.83
2022-08-31T10:52:10.441Z,27.10
2022-08-31T10:54:52.440Z,26.15
2022-08-31T10:57:42.765Z,27.75
2022-08-31T11:00:33.304Z,27.38
2022-08-31T11:03:00.513Z,28.03
2022-08-31T11:05:33.754Z,29.21
2022-08-31T11:08:13.457Z,30.79
2022-08-31T11:10:47.354Z,31.59
2022-08-31T11:13:26.168Z,32.04
2022-08-31T11:16:17.836Z,32.17
2022-08-31T11:19:09.778Z,33.22
2022-08-31T11:21:36.878Z,33.84
2022-08-31T11:24:16.496Z,33.73
2022-08-31T11:26:51.218Z,32.31
2022-08-31T11:29:37.301Z,32.79
2022-08-31T11:32:07.637Z,32.09
2022-08-31T11:34:47.330Z,31.00
2022-08-31T11:37:34.515Z,31.03
2022-08-31T11:40:01.691Z,29.50
2022-08-31T11:42:32.118Z,27.71
2022-08-31T11:45:00.580Z,26.08
2022-08-31T11:47:27.871Z,25.22
2022-08-31T11:50:00.377Z,24.41
2022-08-31T11:52:43.517Z,25.34
2022-08-31T11:55:15.776Z,27.73
2022-08-31T11:58:06.433Z,29.67
2022-08-31T12:00:44.718Z,31.08
2022-08-31T12:03:38.271Z,32.18
2022-08-31T12:06:08.145Z,32.45
2022-08-31T12:08:52.591Z,31.05
2022-08-31T12:11:43.133Z,28.87
2022-08-31T12:14:13.079Z,27.11
2022-08-31T12:16:40.182Z,25.81
2022-08-31T12:19:36.893Z,26.17
2022-08-31T12:22:43.107Z,26.09
2022-08-31T12:25:39.531Z,24.77
2022-08-31T12:28:15.912Z,24.28
2022-08-31T12:30:57.323Z,23.28
2022-08-31T12:33:28.983Z,22.99
2022-08-31T12:36:11.146Z,22.55
2022-08-31T12:38:38.278Z,22.11
2022-08-31T12:41:05.962Z,21.83
2022-08-31T12:43:33.104Z,22.18
2022-08-31T12:46:19.046Z,22.21
2022-08-31T12:49:04.877Z,22.42
2022-08-31T12:51:38.184Z,22.82
2022-08-31T12:54:13.355Z,23.27
2022-08-31T12:56:55.808Z,23.00
2022-08-31T12:59:56.916Z,22.77
2022-08-31T13:02:20.651Z,22.38
2022-08-31T13:04:48.491Z,22.36
2022-08-31T13:07:19.556Z,22.24
2022-08-31T13:09:46.981Z,22.05
2022-08-31T13:12:22.636Z,21.91
2022-08-31T13:14:49.879Z,21.94
2022-08-31T13:17:18.391Z,21.95
2022-08-31T13:19:51.086Z,22.03
2022-08-31T13:22:43.035Z,22.03
2022-08-31T13:25:13.523Z,22.05
2022-08-31T13:27:46.902Z,21.33
2022-08-31T13:30:19.379Z,21.46
2022-08-31T13:32:50.418Z,21.94
2022-08-31T13:35:20.287Z,21.48
2022-08-31T13:38:05.644Z,21.74
2022-08-31T13:40:36.127Z,21.80
2022-08-31T13:43:04.691Z,21.80
2022-08-31T13:45:53.460Z,21.65
2022-08-31T13:48:26.407Z,21.82
2022-08-31T13:50:59.130Z,21.86
2022-08-31T13:53:43.179Z,21.68
2022-08-31T13:56:59.702Z,21.50
2022-08-31T13:59:30.048Z,21.47
2022-08-31T14:02:02.409Z,21.35
2022-08-31T14:04:49.780Z,21.10
2022-08-31T14:07:24.007Z,21.21
2022-08-31T14:09:54.178Z,21.38
2022-08-31T14:12:34.972Z,20.84
2022-08-31T14:15:09.396Z,20.64
2022-08-31T14:18:23.995Z,20.91
2022-08-31T14:20:37.464Z,20.93
2022-08-31T14:23:19.940Z,20.75
2022-08-31T14:25:47.206Z,20.31
2022-08-31T14:28:14.418Z,20.60
2022-08-31T14:30:42.079Z,20.65
2022-08-31T14:33:18.308Z,20.67
2022-08-31T14:35:45.460Z,20.71
2022-08-31T14:38:15.802Z,20.74
2022-08-31T14:40:44.028Z,20.76
2022-08-31T14:43:14.394Z,20.65
2022-08-31T14:45:44.493Z,20.71
2022-08-31T14:48:17.126Z,20.59
2022-08-31T14:50:44.330Z,20.67
2022-08-31T14:53:12.074Z,20.49
2022-08-31T14:55:41.147Z,20.68
2022-08-31T14:58:12.260Z,20.75
2022-08-31T15:00:51.218Z,20.82
2022-08-31T15:03:24.805Z,21.01
2022-08-31T15:05:52.018Z,21.17
2022-08-31T15:08:20.631Z,21.42
2022-08-31T15:10:56.371Z,21.59
2022-08-31T15:13:23.910Z,21.28
2022-08-31T15:15:57.663Z,20.73
2022-08-31T15:18:25.182Z,20.96
2022-08-31T15:20:52.653Z,20.77
2022-08-31T15:23:20.120Z,20.75
2022-08-31T15:25:47.651Z,20.85
2022-08-31T15:28:15.878Z,20.89
2022-08-31T15:30:43.433Z,21.01
2022-08-31T15:33:11.538Z,20.99
2022-08-31T15:35:41.387Z,20.27
2022-08-31T15:38:10.459Z,19.64
2022-08-31T15:40:39.298Z,19.71
2022-08-31T15:43:09.802Z,19.56
2022-08-31T15:45:37.332Z,19.93
2022-08-31T15:48:23.804Z,20.29
2022-08-31T15:51:00.810Z,20.01
2022-08-31T15:53:29.615Z,19.87
2022-08-31T15:56:06.743Z,19.95
2022-08-31T15:58:35.096Z,20.10
2022-08-31T16:01:02.156Z,19.79
2022-08-31T16:03:35.119Z,19.92
2022-08-31T16:06:04.417Z,20.01
2022-08-31T16:08:31.805Z,19.81
2022-08-31T16:10:59.231Z,19.79
2022-08-31T16:13:26.756Z,19.90
2022-08-31T16:15:53.766Z,19.95
2022-08-31T16:18:22.263Z,19.89
2022-08-31T16:20:50.860Z,19.69
2022-08-31T16:23:18.223Z,19.76
2022-08-31T16:25:48.098Z,19.36
2022-08-31T16:28:20.160Z,19.38
2022-08-31T16:30:47.734Z,19.51
2022-08-31T16:33:14.730Z,19.30
2022-08-31T16:35:44.869Z,19.21
2022-08-31T16:38:12.281Z,19.45
2022-08-31T16:40:39.454Z,19.24
2022-08-31T16:43:06.829Z,19.26
2022-08-31T16:45:33.825Z,19.22
2022-08-31T16:48:20.203Z,19.14
2022-08-31T16:50:48.640Z,19.23
2022-08-31T16:53:18.496Z,19.34
2022-08-31T16:55:47.646Z,19.42
2022-08-31T16:58:29.542Z,19.38
2022-08-31T17:01:03.651Z,19.33
2022-08-31T17:03:31.128Z,19.19
2022-08-31T17:05:58.103Z,19.14
2022-08-31T17:08:25.095Z,19.21
2022-08-31T17:10:52.514Z,19.09
2022-08-31T17:13:19.499Z,19.03
2022-08-31T17:15:46.438Z,18.96
2022-08-31T17:18:13.644Z,18.91
2022-08-31T17:20:41.065Z,18.81
2022-08-31T17:23:08.969Z,18.71
2022-08-31T17:25:37.290Z,18.64
2022-08-31T17:28:07.760Z,18.53
2022-08-31T17:30:45.075Z,18.49
2022-08-31T17:33:12.807Z,18.44
2022-08-31T17:35:42.570Z,18.35
2022-08-31T17:38:09.935Z,18.25
2022-08-31T17:40:36.957Z,18.14
2022-08-31T17:43:03.920Z,18.05
2022-08-31T17:45:31.338Z,17.95
2022-08-31T17:47:58.231Z,17.94
2022-08-31T17:50:26.539Z,17.92
2022-08-31T17:52:55.503Z,17.81
2022-08-31T17:55:22.680Z,17.68
2022-08-31T17:57:49.862Z,17.59
2022-08-31T18:00:17.124Z,17.54
2022-08-31T18:02:46.025Z,17.55
2022-08-31T18:05:15.795Z,17.43
2022-08-31T18:07:43.228Z,17.34
2022-08-31T18:10:10.424Z,17.16
2022-08-31T18:12:42.318Z,17.02
2022-08-31T18:15:11.683Z,16.90
2022-08-31T18:17:38.707Z,16.98
2022-08-31T18:20:06.106Z,16.92
2022-08-31T18:22:33.459Z,16.87
2022-08-31T18:25:00.646Z,16.88
2022-08-31T18:27:27.939Z,16.72
2022-08-31T18:29:56.772Z,16.66
2022-08-31T18:32:26.085Z,16.65
2022-08-31T18:34:57.309Z,16.62
2022-08-31T18:37:26.189Z,16.50
2022-08-31T18:40:11.954Z,16.52
2022-08-31T18:42:58.376Z,16.45
2022-08-31T18:45:26.523Z,16.42
2022-08-31T18:50:42.658Z,16.51
2022-08-31T18:53:10.851Z,16.38
2022-08-31T18:55:43.118Z,16.34
2022-08-31T18:58:10.700Z,16.23
2022-08-31T19:00:38.200Z,16.10
2022-08-31T19:03:06.212Z,16.19
2022-08-31T19:05:33.903Z,16.12
2022-08-31T19:08:01.033Z,16.03
2022-08-31T19:10:28.457Z,15.92
2022-08-31T19:12:56.887Z,15.84
2022-08-31T19:15:35.166Z,15.71
2022-08-31T19:18:05.584Z,15.64
2022-08-31T19:20:33.575Z,15.59
2022-08-31T19:23:00.781Z,15.55
2022-08-31T19:25:29.413Z,15.45
2022-08-31T19:27:56.711Z,15.41
2022-08-31T19:30:28.147Z,15.42
2022-08-31T19:32:56.774Z,15.35
2022-08-31T19:35:26.745Z,15.32
2022-08-31T19:37:56.767Z,15.26
2022-08-31T19:40:43.285Z,15.19
2022-08-31T19:46:16.732Z,15.05
2022-08-31T19:48:44.832Z,14.96
2022-08-31T19:51:14.779Z,14.91
2022-08-31T19:53:45.326Z,14.88
2022-08-31T19:56:17.731Z,14.95
2022-08-31T19:58:47.522Z,15.02
2022-08-31T20:01:18.973Z,15.06
2022-08-31T20:03:48.281Z,15.05
2022-08-31T20:06:16.242Z,15.01
2022-08-31T20:08:44.312Z,14.91
2022-08-31T20:11:14.057Z,14.83
2022-08-31T20:13:43.076Z,14.81
2022-08-31T20:16:12.046Z,14.76
2022-08-31T20:18:40.467Z,14.70
2022-08-31T20:21:20.779Z,14.66
2022-08-31T20:23:49.803Z,14.70
2022-08-31T20:26:20.122Z,14.69
2022-08-31T20:28:47.914Z,14.63
2022-08-31T20:31:16.818Z,14.53
2022-08-31T20:33:44.654Z,14.43
2022-08-31T20:36:23.067Z,14.34
2022-08-31T20:38:57.185Z,14.32
2022-08-31T20:41:25.178Z,14.21
2022-08-31T20:43:52.925Z,14.18
2022-08-31T20:46:38.539Z,14.17
2022-08-31T20:49:24.652Z,14.15
2022-08-31T20:51:55.747Z,14.15
2022-08-31T20:54:23.595Z,14.14
2022-08-31T20:56:51.335Z,14.11
2022-08-31T20:59:23.079Z,14.09
2022-08-31T21:01:55.487Z,14.09
2022-08-31T21:04:23.321Z,14.15
2022-08-31T21:06:52.832Z,14.17
2022-08-31T21:09:21.110Z,14.24
2022-08-31T21:11:48.717Z,14.27
2022-08-31T21:14:17.317Z,14.33
2022-08-31T21:16:44.695Z,14.27
2022-08-31T21:19:13.038Z,14.28
2022-08-31T21:21:41.117Z,14.31
2022-08-31T21:24:10.042Z,14.33
2022-08-31T21:26:39.662Z,14.34
2022-08-31T21:29:08.088Z,14.31
2022-08-31T21:31:36.215Z,14.31
2022-08-31T21:34:10.793Z,14.32
2022-08-31T21:36:38.891Z,14.34
2022-08-31T21:39:07.710Z,14.38
2022-08-31T21:41:36.811Z,14.41
2022-08-31T21:44:05.679Z,14.42
2022-08-31T21:46:33.822Z,14.50
2022-08-31T21:49:00.942Z,14.56
2022-08-31T21:51:33.017Z,14.51
2022-08-31T21:54:05.794Z,14.60
2022-08-31T21:56:36.764Z,14.63
2022-08-31T21:59:06.712Z,14.71
2022-08-31T22:01:35.458Z,14.75
2022-08-31T22:04:02.808Z,14.77
2022-08-31T22:06:31.266Z,14.77
2022-08-31T22:09:00.488Z,14.70
2022-08-31T22:11:28.843Z,14.77
2022-08-31T22:13:57.374Z,14.84
2022-08-31T22:16:25.452Z,14.89
2022-08-31T22:19:02.532Z,14.83
2022-08-31T22:21:32.258Z,14.77
2022-08-31T22:24:00.563Z,14.80
2022-08-31T22:26:30.785Z,14.73
2022-08-31T22:28:59.676Z,14.68
2022-08-31T22:31:27.624Z,14.61
2022-08-31T22:33:55.057Z,14.63
2022-08-31T22:36:31.619Z,14.54
2022-08-31T22:39:06.806Z,14.58
2022-08-31T22:41:36.545Z,14.54
2022-08-31T22:44:04.531Z,14.52
2022-08-31T22:46:31.986Z,14.55
2022-08-31T22:48:59.506Z,14.57
2022-08-31T22:51:26.536Z,14.55
2022-08-31T22:53:53.695Z,14.51
2022-08-31T22:56:26.103Z,14.47
2022-08-31T22:58:54.238Z,14.50
2022-08-31T23:01:24.759Z,14.50
2022-08-31T23:03:52.189Z,14.50
2022-08-31T23:06:20.839Z,14.53
2022-08-31T23:08:49.105Z,14.52
2022-08-31T23:11:18.871Z,14.46
2022-08-31T23:13:55.802Z,14.44
2022-08-31T23:16:25.122Z,14.40
2022-08-31T23:18:57.947Z,14.41
2022-08-31T23:21:25.943Z,14.45
2022-08-31T23:23:54.039Z,14.45
2022-08-31T23:26:21.814Z,14.45
2022-08-31T23:28:49.063Z,14.44
2022-08-31T23:31:15.997Z,14.39
2022-08-31T23:33:47.093Z,14.37
2022-08-31T23:36:14.633Z,14.36
2022-08-31T23:38:42.760Z,14.37
2022-08-31T23:41:13.733Z,14.28
2022-08-31T23:43:41.591Z,14.27
2022-08-31T23:46:08.837Z,14.23
2022-08-31T23:48:35.840Z,14.27
2022-08-31T23:51:06.740Z,14.20
2022-08-31T23:53:34.388Z,14.10
2022-08-31T23:56:02.127Z,14.09
2022-08-31T23:58:31.974Z,14.10
